首爾, 大韓民國

2015年9月05日 21時12分 (GMT +0900)
Kimpo International | | Change Station
CLOSE
Current Station
機場
Location: Seoul Kimpo Airport,
海拔: 59 ft
附近的氣象站

海拔 59 ft 37.56 °N, 126.79 °E | Updated 12 minutes ago

Mostly Cloudy
多雲
70 °F
感覺像 70 °F
5
風 變化 風 來自 東北偏北

今日
高 -- | 低 -- °F
--% 降水機率
昨天
高 -- | 低 -- °F
Precip. -- 英寸
6:05 AM 6:56 PM
虧凸月, 49% visible
氣壓 29.77 英寸
能見度 6.2 英里
多雲 多雲時晴 3000 ft
多雲 12000 ft
露點 63 °F
濕度 78%
降雨量 0.00 英寸
積雪深度 不適用。
紫外線 0 / 12
花粉 不適用。
空氣質素 不適用。
Flu Activity 不適用。
METAR RKSS 051200Z 03004KT 9999 SCT030 BKN120 21/17 Q1008 NOSIG
氣壓 29.77 英寸
能見度 6.2 英里
多雲 多雲時晴 3000 ft
多雲 12000 ft
露點 63 °F
濕度 78%
降雨量 0.00 英寸
積雪深度 不適用。
紫外線 0 / 12
花粉 不適用。
空氣質素 不適用。
Flu Activity 不適用。
METAR RKSS 051200Z 03004KT 9999 SCT030 BKN120 21/17 Q1008 NOSIG

10-Day Weather Forecast

×

Almanac

天文

Sep. 05, 2015 昇起 降落
實際時間
民用曙暮光
航海曙暮光
天文學微明
月亮
可見光的長度
白晝時間
Tomorrow will be .
, % of the Moon is Illuminated

今天之最

國家高溫 國家低溫

Community

WunderPhotos

Upload Photos

1,852,455 照片已上傳!

WunderBlogs® & News

Nearby

空氣質素

  空氣質素 空氣質素指數 污染物
Not available.

積雪量

Station 深度 海拔

地震活動

城市 距離 時間和日期
顯示的最小幅度是2.5。

沿海水溫

地點 溫度

Stations

附近的氣象站

氣象站位置 溫度 風寒指數 露點 濕度 Precip. 海拔 最近更新時間 類型